Time;durP1;ratioP1;P1;durP2;ratioP2;P2;SDS_P1;SDS_P2;PMS_P1;PMS_P2;Temp;Humidity;BMP_temperature;BMP_pressure;BME280_temperature;BME280_humidity;BME280_pressure;Samples;Min_cycle;Max_cycle;Signal;HPM_P1;HPM_P2
2023/11/28 00:01:52;;;;;;;0.43;0.10;;;11.60;96.70;;;;;;5036236;28;20109;-40
2023/11/28 00:04:17;;;;;;;0.10;0.10;;;11.60;96.80;;;;;;5033252;28;20100;-42
2023/11/28 00:06:43;;;;;;;0.30;0.20;;;11.60;96.80;;;;;;5033173;28;20112;-42
2023/11/28 00:09:10;;;;;;;0.22;0.20;;;11.70;96.80;;;;;;5033002;28;20053;-43
2023/11/28 00:11:36;;;;;;;0.30;0.13;;;11.60;96.80;;;;;;5033621;28;20028;-42
2023/11/28 00:14:02;;;;;;;0.28;0.20;;;11.60;96.80;;;;;;5033629;28;20030;-42
2023/11/28 00:16:27;;;;;;;0.17;0.17;;;11.70;96.90;;;;;;5033106;28;20052;-42
2023/11/28 00:18:53;;;;;;;0.28;0.25;;;11.70;97.00;;;;;;5033316;28;20021;-40
2023/11/28 00:21:18;;;;;;;0.57;0.20;;;11.70;97.00;;;;;;5033515;28;20497;-42
2023/11/28 00:23:44;;;;;;;0.15;0.15;;;11.80;97.00;;;;;;5032978;28;20037;-36
2023/11/28 00:26:10;;;;;;;0.52;0.22;;;11.80;97.00;;;;;;5034813;28;20037;-39
2023/11/28 00:28:36;;;;;;;0.20;0.20;;;11.80;96.90;;;;;;5035695;28;20383;-43
2023/11/28 00:31:01;;;;;;;0.10;0.10;;;11.90;96.80;;;;;;5033198;28;20476;-42
2023/11/28 00:33:27;;;;;;;0.25;0.20;;;11.90;96.70;;;;;;5033047;28;20160;-40
2023/11/28 00:35:53;;;;;;;0.47;0.30;;;12.00;96.70;;;;;;5033428;28;20025;-36
2023/11/28 00:38:19;;;;;;;0.10;0.08;;;12.10;96.70;;;;;;5032554;28;20150;-40
2023/11/28 00:40:44;;;;;;;0.10;0.10;;;12.10;96.60;;;;;;5032503;28;20472;-38
2023/11/28 00:43:10;;;;;;;0.10;0.10;;;12.10;96.50;;;;;;5034222;28;20049;-43
2023/11/28 00:45:38;;;;;;;0.30;0.30;;;12.10;96.40;;;;;;5033403;28;20060;-43
2023/11/28 00:48:05;;;;;;;0.30;0.20;;;12.20;96.40;;;;;;5034695;28;20414;-42
2023/11/28 00:50:31;;;;;;;0.28;0.20;;;12.20;96.30;;;;;;5034074;28;20490;-40
2023/11/28 00:52:56;;;;;;;0.15;0.15;;;12.20;96.30;;;;;;5034010;28;20022;-43
2023/11/28 00:55:23;;;;;;;0.10;0.10;;;12.20;96.30;;;;;;5033847;28;20025;-42
2023/11/28 00:57:49;;;;;;;0.22;0.15;;;12.20;96.20;;;;;;5033946;28;20064;-42
2023/11/28 01:00:15;;;;;;;0.15;0.13;;;12.30;96.20;;;;;;5034093;28;20383;-43
2023/11/28 01:02:41;;;;;;;0.17;0.15;;;12.30;96.20;;;;;;5034606;28;20120;-38
2023/11/28 01:05:08;;;;;;;0.30;0.20;;;12.30;96.20;;;;;;5032166;28;20025;-42
2023/11/28 01:07:34;;;;;;;0.25;0.20;;;12.20;96.20;;;;;;5031805;28;20437;-41
2023/11/28 01:10:00;;;;;;;0.10;0.10;;;12.20;96.20;;;;;;5032047;28;20160;-43
2023/11/28 01:12:25;;;;;;;0.10;0.10;;;12.20;96.20;;;;;;5032025;28;20468;-43
2023/11/28 01:14:51;;;;;;;0.40;0.15;;;12.20;96.20;;;;;;5031601;28;20029;-42
2023/11/28 01:17:17;;;;;;;0.10;0.10;;;12.20;96.30;;;;;;5032299;28;20025;-42
2023/11/28 01:19:42;;;;;;;0.17;0.17;;;12.20;96.20;;;;;;5033729;28;20029;-42
2023/11/28 01:22:09;;;;;;;0.10;0.10;;;12.20;96.20;;;;;;5032800;28;20033;-43
2023/11/28 01:24:35;;;;;;;0.10;0.10;;;12.20;96.20;;;;;;5031835;28;20029;-43
2023/11/28 01:27:01;;;;;;;0.20;0.10;;;12.20;96.20;;;;;;5031813;28;20037;-38
2023/11/28 01:29:26;;;;;;;0.75;0.30;;;12.20;96.30;;;;;;5032813;28;20394;-43
2023/11/28 01:31:52;;;;;;;0.15;0.13;;;12.10;96.30;;;;;;5031782;28;20029;-43
2023/11/28 01:34:18;;;;;;;0.10;0.10;;;12.10;96.30;;;;;;5031634;28;20030;-42
2023/11/28 01:36:43;;;;;;;0.30;0.20;;;12.10;96.30;;;;;;5031537;28;20065;-42
2023/11/28 01:39:12;;;;;;;0.40;0.20;;;12.10;96.30;;;;;;5031372;28;20124;-42
2023/11/28 01:41:38;;;;;;;0.43;0.20;;;12.10;96.30;;;;;;5032710;28;20081;-43
2023/11/28 01:44:05;;;;;;;0.00;0.00;;;12.10;96.30;;;;;;5032066;28;20030;-42
2023/11/28 01:46:36;;;;;;;0.20;0.10;;;12.10;96.30;;;;;;5031683;28;20072;-43
2023/11/28 01:49:08;;;;;;;0.30;0.10;;;12.10;96.30;;;;;;5031324;28;20489;-43
2023/11/28 01:51:37;;;;;;;0.08;0.08;;;12.10;96.30;;;;;;5031311;28;20079;-43
2023/11/28 01:54:05;;;;;;;0.30;0.20;;;12.10;96.30;;;;;;5031384;28;20105;-43
2023/11/28 01:56:31;;;;;;;0.28;0.10;;;12.10;96.40;;;;;;5031295;28;20034;-38
2023/11/28 01:58:59;;;;;;;0.20;0.10;;;12.00;96.30;;;;;;5031227;28;20039;-39
2023/11/28 02:01:25;;;;;;;0.47;0.22;;;12.00;96.40;;;;;;5032518;28;20031;-38
2023/11/28 02:03:52;;;;;;;0.40;0.20;;;12.00;96.40;;;;;;5031828;28;20095;-43
2023/11/28 02:06:17;;;;;;;0.10;0.10;;;12.00;96.40;;;;;;5031042;28;20084;-41
2023/11/28 02:08:44;;;;;;;0.20;0.20;;;12.00;96.40;;;;;;5031069;28;20022;-43
2023/11/28 02:11:10;;;;;;;0.20;0.20;;;12.00;96.40;;;;;;5031527;28;20036;-42
2023/11/28 02:13:36;;;;;;;0.10;0.10;;;12.00;96.40;;;;;;5031318;28;20395;-43
2023/11/28 02:16:14;;;;;;;0.10;0.10;;;12.00;96.50;;;;;;5032546;28;20471;-42
2023/11/28 02:18:40;;;;;;;0.13;0.10;;;12.00;96.50;;;;;;5032202;28;20076;-41
2023/11/28 02:21:07;;;;;;;0.00;0.00;;;12.00;96.50;;;;;;5034249;28;20051;-37
2023/11/28 02:23:34;;;;;;;0.40;0.20;;;12.00;96.50;;;;;;5032660;28;20029;-43
2023/11/28 02:26:03;;;;;;;2.10;0.20;;;12.00;96.50;;;;;;5031385;28;20694;-43
2023/11/28 02:28:29;;;;;;;0.10;0.10;;;11.90;96.50;;;;;;5035366;28;20590;-43
2023/11/28 02:30:58;;;;;;;0.10;0.08;;;11.90;96.60;;;;;;5034953;28;20125;-43
2023/11/28 02:33:25;;;;;;;0.10;0.10;;;11.90;96.60;;;;;;5035728;28;20029;-42
2023/11/28 02:35:52;;;;;;;1.27;0.13;;;11.90;96.90;;;;;;5036583;28;20116;-41
2023/11/28 02:38:17;;;;;;;0.68;0.28;;;11.90;96.60;;;;;;5035637;28;20071;-43
2023/11/28 02:40:43;;;;;;;0.10;0.10;;;11.90;96.60;;;;;;5035452;28;20473;-43
2023/11/28 02:43:09;;;;;;;0.20;0.10;;;11.90;96.60;;;;;;5034862;28;20072;-41
2023/11/28 02:45:35;;;;;;;0.20;0.10;;;11.90;96.70;;;;;;5034807;28;20086;-43
2023/11/28 02:48:01;;;;;;;0.20;0.20;;;11.90;96.70;;;;;;5034640;28;20025;-43
2023/11/28 02:50:27;;;;;;;0.00;0.00;;;11.80;96.70;;;;;;5035069;28;20026;-42
2023/11/28 02:52:53;;;;;;;0.43;0.10;;;11.90;96.70;;;;;;5034696;28;20028;-42
2023/11/28 02:55:18;;;;;;;0.00;0.00;;;11.80;96.70;;;;;;5035169;28;20481;-43
2023/11/28 02:57:46;;;;;;;0.10;0.10;;;11.80;96.70;;;;;;5035357;28;20635;-43
2023/11/28 03:00:13;;;;;;;0.10;0.10;;;11.80;96.70;;;;;;5034487;28;20030;-40
2023/11/28 03:02:38;;;;;;;0.10;0.10;;;11.80;96.70;;;;;;5034823;28;20071;-41
2023/11/28 03:05:04;;;;;;;0.32;0.10;;;11.80;96.80;;;;;;5034403;28;20029;-42
2023/11/28 03:07:30;;;;;;;0.20;0.20;;;11.80;96.80;;;;;;5034198;28;20025;-40
2023/11/28 03:09:55;;;;;;;0.00;0.00;;;11.80;96.80;;;;;;5034723;28;20026;-43
2023/11/28 03:12:21;;;;;;;0.20;0.10;;;11.80;96.80;;;;;;5035111;28;20076;-38
2023/11/28 03:14:47;;;;;;;0.20;0.10;;;11.80;96.90;;;;;;5034931;28;20025;-43
2023/11/28 03:17:12;;;;;;;0.00;0.00;;;11.80;96.90;;;;;;5035041;28;20504;-43
2023/11/28 03:19:39;;;;;;;0.10;0.10;;;11.80;96.90;;;;;;5033883;28;20025;-43
2023/11/28 03:22:05;;;;;;;0.10;0.10;;;11.80;96.90;;;;;;5034881;28;20391;-43
2023/11/28 03:24:33;;;;;;;0.57;0.20;;;11.70;97.20;;;;;;5035108;28;20029;-42
2023/11/28 03:26:59;;;;;;;0.03;0.00;;;11.80;96.90;;;;;;5034829;28;20480;-37
2023/11/28 03:29:24;;;;;;;0.93;0.15;;;11.80;96.90;;;;;;5034788;28;20063;-43
2023/11/28 03:31:50;;;;;;;0.03;0.00;;;11.70;96.90;;;;;;5034955;28;20105;-41
2023/11/28 03:34:16;;;;;;;0.13;0.10;;;11.70;96.90;;;;;;5035336;28;20048;-38
2023/11/28 03:36:41;;;;;;;0.13;0.10;;;11.70;97.00;;;;;;5035132;28;20032;-38
2023/11/28 03:39:07;;;;;;;0.10;0.00;;;11.70;97.00;;;;;;5035028;28;20124;-41
2023/11/28 03:41:33;;;;;;;0.10;0.03;;;11.70;97.00;;;;;;5034262;28;20029;-42
2023/11/28 03:43:58;;;;;;;0.15;0.03;;;11.70;97.00;;;;;;5035470;28;20129;-43
2023/11/28 03:46:24;;;;;;;0.10;0.00;;;11.70;97.00;;;;;;5034907;28;20029;-39
2023/11/28 03:48:50;;;;;;;0.10;0.10;;;11.70;97.00;;;;;;5034388;28;20391;-43
2023/11/28 03:51:16;;;;;;;0.10;0.03;;;11.70;97.10;;;;;;5034374;28;20029;-39
2023/11/28 03:53:41;;;;;;;0.10;0.10;;;11.70;97.10;;;;;;5035005;28;20026;-42
2023/11/28 03:56:09;;;;;;;0.57;0.30;;;11.70;97.10;;;;;;5034351;28;20721;-39
2023/11/28 03:58:35;;;;;;;0.30;0.10;;;11.70;97.10;;;;;;5033883;28;20014;-42
2023/11/28 04:01:01;;;;;;;0.10;0.10;;;11.70;97.10;;;;;;5034032;28;20017;-43
2023/11/28 04:03:28;;;;;;;0.00;0.00;;;11.70;97.10;;;;;;5034335;28;20438;-39
2023/11/28 04:05:57;;;;;;;0.10;0.10;;;11.70;97.10;;;;;;5035133;28;20063;-36
2023/11/28 04:08:22;;;;;;;0.10;0.10;;;11.60;97.10;;;;;;5035285;28;20108;-40
2023/11/28 04:10:48;;;;;;;0.00;0.00;;;11.60;97.10;;;;;;5034183;28;20052;-42
2023/11/28 04:13:14;;;;;;;0.10;0.10;;;11.70;97.20;;;;;;5033991;28;20026;-41
2023/11/28 04:15:40;;;;;;;0.20;0.20;;;11.60;97.10;;;;;;5033988;28;20083;-38
2023/11/28 04:18:06;;;;;;;0.15;0.08;;;11.60;97.10;;;;;;5033612;28;20029;-42
2023/11/28 04:20:31;;;;;;;0.35;0.10;;;11.60;97.20;;;;;;5032939;28;20033;-41
2023/11/28 04:22:57;;;;;;;0.20;0.10;;;11.60;97.20;;;;;;5033766;28;20029;-43
2023/11/28 04:25:25;;;;;;;0.30;0.10;;;11.60;97.20;;;;;;5033887;28;20030;-41
2023/11/28 04:27:51;;;;;;;0.10;0.10;;;11.60;97.20;;;;;;5034146;28;20032;-42
2023/11/28 04:30:17;;;;;;;0.30;0.17;;;11.60;97.20;;;;;;5033632;28;20604;-42
2023/11/28 04:32:43;;;;;;;0.00;0.00;;;11.60;97.20;;;;;;5033090;28;20108;-40
2023/11/28 04:35:09;;;;;;;0.10;0.10;;;11.60;97.20;;;;;;5033389;28;20533;-37
2023/11/28 04:37:35;;;;;;;0.38;0.00;;;11.60;97.20;;;;;;5032610;28;20111;-43
2023/11/28 04:40:01;;;;;;;0.00;0.00;;;11.60;97.30;;;;;;5033649;28;20045;-42
2023/11/28 04:42:27;;;;;;;0.25;0.15;;;11.60;97.30;;;;;;5033871;28;20036;-43
2023/11/28 04:44:54;;;;;;;0.20;0.10;;;11.60;97.30;;;;;;5032961;28;20411;-41
2023/11/28 04:47:20;;;;;;;0.00;0.00;;;11.60;97.30;;;;;;5032285;28;20394;-43
2023/11/28 04:49:46;;;;;;;0.30;0.10;;;11.60;97.30;;;;;;5031743;28;20089;-42
2023/11/28 04:52:12;;;;;;;0.13;0.10;;;11.60;97.30;;;;;;5032380;28;20032;-42
2023/11/28 04:54:37;;;;;;;0.10;0.10;;;11.60;97.30;;;;;;5032407;28;20025;-42
2023/11/28 04:57:04;;;;;;;0.00;0.00;;;11.60;97.30;;;;;;5032285;28;20053;-43
2023/11/28 04:59:30;;;;;;;0.00;0.00;;;11.60;97.30;;;;;;5032697;28;20033;-43
2023/11/28 05:01:56;;;;;;;0.03;0.00;;;11.60;97.30;;;;;;5032551;28;20025;-43
2023/11/28 05:04:22;;;;;;;0.10;0.10;;;11.60;97.30;;;;;;5032392;28;20036;-42
2023/11/28 05:06:48;;;;;;;0.10;0.10;;;11.60;97.30;;;;;;5032615;28;20025;-42
2023/11/28 05:09:17;;;;;;;0.10;0.10;;;11.60;97.40;;;;;;5032561;28;20033;-43
2023/11/28 05:11:44;;;;;;;0.20;0.13;;;11.60;97.30;;;;;;5033561;28;20022;-39
2023/11/28 05:14:09;;;;;;;0.08;0.05;;;11.60;97.40;;;;;;5033393;28;20025;-42
2023/11/28 05:16:35;;;;;;;0.10;0.10;;;11.60;97.40;;;;;;5032404;28;20052;-43
2023/11/28 05:19:00;;;;;;;0.00;0.00;;;11.60;97.40;;;;;;5031814;28;20030;-43
2023/11/28 05:21:26;;;;;;;0.03;0.03;;;11.50;97.40;;;;;;5031875;28;20033;-43
2023/11/28 05:23:51;;;;;;;0.10;0.10;;;11.60;97.40;;;;;;5031871;28;20419;-43
2023/11/28 05:26:17;;;;;;;0.15;0.15;;;11.50;97.40;;;;;;5032207;28;20065;-40
2023/11/28 05:28:43;;;;;;;0.15;0.10;;;11.50;97.40;;;;;;5032665;28;20151;-42
2023/11/28 05:31:09;;;;;;;0.10;0.10;;;11.50;97.40;;;;;;5032760;28;20487;-43
2023/11/28 05:33:35;;;;;;;0.20;0.10;;;11.50;97.40;;;;;;5032220;28;20018;-43
2023/11/28 05:36:06;;;;;;;0.10;0.10;;;11.50;97.40;;;;;;5031558;28;20018;-42
2023/11/28 05:38:32;;;;;;;0.20;0.10;;;11.50;97.40;;;;;;5032346;28;20398;-43
2023/11/28 05:40:59;;;;;;;0.08;0.08;;;11.50;97.40;;;;;;5033022;28;20546;-43
2023/11/28 05:43:28;;;;;;;0.10;0.10;;;11.50;97.40;;;;;;5032512;28;20017;-42
2023/11/28 05:45:54;;;;;;;0.10;0.10;;;11.50;97.40;;;;;;5032141;28;20072;-42
2023/11/28 05:48:20;;;;;;;0.00;0.00;;;11.50;97.40;;;;;;5032413;28;20541;-42
2023/11/28 05:50:46;;;;;;;0.10;0.10;;;11.50;97.40;;;;;;5031901;28;20025;-42
2023/11/28 05:53:12;;;;;;;0.40;0.20;;;11.50;97.50;;;;;;5032509;28;20518;-42
2023/11/28 05:55:38;;;;;;;0.20;0.10;;;11.50;97.50;;;;;;5032080;28;20045;-43
2023/11/28 05:58:05;;;;;;;0.10;0.08;;;11.50;97.50;;;;;;5031729;28;20025;-43
2023/11/28 06:00:34;;;;;;;0.38;0.10;;;11.50;97.50;;;;;;5031999;28;20030;-42
2023/11/28 06:03:00;;;;;;;0.20;0.10;;;11.50;97.50;;;;;;5031243;28;20067;-38
2023/11/28 06:05:25;;;;;;;0.32;0.20;;;11.60;97.90;;;;;;5031932;28;20387;-43
2023/11/28 06:07:52;;;;;;;0.20;0.17;;;11.50;97.50;;;;;;5031081;28;20017;-39
2023/11/28 06:10:18;;;;;;;0.20;0.08;;;11.50;97.50;;;;;;5031289;28;20021;-40
2023/11/28 06:12:44;;;;;;;0.25;0.10;;;11.50;97.50;;;;;;5032988;28;20025;-43
2023/11/28 06:15:10;;;;;;;0.20;0.10;;;11.50;97.50;;;;;;5031167;28;20022;-42
2023/11/28 06:17:35;;;;;;;0.28;0.15;;;11.50;97.50;;;;;;5030945;28;20045;-41
2023/11/28 06:20:01;;;;;;;0.10;0.10;;;11.50;97.50;;;;;;5031071;28;20491;-41
2023/11/28 06:22:27;;;;;;;0.10;0.10;;;11.50;97.60;;;;;;5031349;28;20029;-43
2023/11/28 06:24:52;;;;;;;0.20;0.20;;;11.50;97.50;;;;;;5032136;28;20025;-39
2023/11/28 06:27:18;;;;;;;0.13;0.08;;;11.50;97.50;;;;;;5029716;28;20029;-38
2023/11/28 06:29:43;;;;;;;0.30;0.13;;;11.50;97.60;;;;;;5030998;28;20026;-41
2023/11/28 06:32:09;;;;;;;0.00;0.00;;;11.50;97.60;;;;;;5032933;28;20116;-40
2023/11/28 06:34:35;;;;;;;0.10;0.10;;;11.50;97.50;;;;;;5031625;28;20112;-39
2023/11/28 06:37:01;;;;;;;0.35;0.15;;;11.50;97.90;;;;;;5032075;28;20033;-39
2023/11/28 06:39:27;;;;;;;0.10;0.10;;;11.50;97.60;;;;;;5031596;28;20403;-43
2023/11/28 06:41:53;;;;;;;0.30;0.20;;;11.50;97.60;;;;;;5032154;28;20092;-36
2023/11/28 06:44:20;;;;;;;0.20;0.03;;;11.50;97.60;;;;;;5030870;28;20444;-37
2023/11/28 06:46:48;;;;;;;0.20;0.10;;;11.50;97.60;;;;;;5031151;28;20032;-42
2023/11/28 06:49:14;;;;;;;0.20;0.10;;;11.50;97.60;;;;;;5031527;28;20022;-43
2023/11/28 06:51:39;;;;;;;0.20;0.20;;;11.50;97.60;;;;;;5030860;28;20060;-43
2023/11/28 06:54:05;;;;;;;0.10;0.10;;;11.50;97.60;;;;;;5030340;28;20029;-43
2023/11/28 06:56:31;;;;;;;0.10;0.10;;;11.60;97.60;;;;;;5030856;28;20038;-40
2023/11/28 06:58:57;;;;;;;0.00;0.00;;;11.50;97.60;;;;;;5030634;28;20025;-40
2023/11/28 07:01:23;;;;;;;0.10;0.10;;;11.60;97.60;;;;;;5030830;28;20045;-42
2023/11/28 07:03:50;;;;;;;0.10;0.10;;;11.60;97.50;;;;;;5032041;28;20135;-37
2023/11/28 07:06:15;;;;;;;0.13;0.10;;;11.70;97.50;;;;;;5031988;28;20029;-43
2023/11/28 07:08:41;;;;;;;0.20;0.13;;;11.70;97.50;;;;;;5031246;28;20029;-40
2023/11/28 07:11:16;;;;;;;0.20;0.10;;;11.70;97.40;;;;;;5030951;28;20029;-42
2023/11/28 07:13:42;;;;;;;0.10;0.10;;;11.80;97.40;;;;;;5033583;28;20017;-43
2023/11/28 07:16:08;;;;;;;0.13;0.13;;;11.80;97.40;;;;;;5034421;28;20498;-38
2023/11/28 07:18:34;;;;;;;0.10;0.10;;;11.80;97.30;;;;;;5034466;28;20082;-43
2023/11/28 07:21:00;;;;;;;0.38;0.20;;;11.90;97.30;;;;;;5034209;28;20029;-40
2023/11/28 07:23:26;;;;;;;0.15;0.10;;;11.90;97.20;;;;;;5034804;28;20368;-42
2023/11/28 07:25:52;;;;;;;0.60;0.30;;;11.90;97.20;;;;;;5034751;28;20021;-42
2023/11/28 07:28:18;;;;;;;0.20;0.20;;;12.00;97.20;;;;;;5034368;28;20026;-42
2023/11/28 07:30:45;;;;;;;0.20;0.10;;;12.00;97.10;;;;;;5033971;28;20080;-43
2023/11/28 07:33:10;;;;;;;0.40;0.20;;;12.00;97.00;;;;;;5033928;28;20026;-42
2023/11/28 07:35:36;;;;;;;0.30;0.20;;;12.10;97.00;;;;;;5033851;28;20041;-42
2023/11/28 07:38:03;;;;;;;0.10;0.10;;;12.10;97.00;;;;;;5033684;28;20037;-43
2023/11/28 07:40:30;;;;;;;0.30;0.20;;;12.10;96.90;;;;;;5034323;28;20075;-43
2023/11/28 07:42:56;;;;;;;0.40;0.20;;;12.10;96.90;;;;;;5035301;28;20032;-39
2023/11/28 07:45:21;;;;;;;0.22;0.20;;;12.10;96.80;;;;;;5033864;28;20030;-43
2023/11/28 07:47:47;;;;;;;0.20;0.10;;;12.20;96.80;;;;;;5033499;28;20033;-42
2023/11/28 07:50:13;;;;;;;0.50;0.22;;;12.20;96.80;;;;;;5033585;28;20033;-42
2023/11/28 07:52:38;;;;;;;0.85;0.15;;;12.20;96.70;;;;;;5033887;28;20475;-43
2023/11/28 07:55:05;;;;;;;0.30;0.20;;;12.20;96.70;;;;;;5033446;28;20029;-43
2023/11/28 07:57:30;;;;;;;0.10;0.10;;;12.30;96.70;;;;;;5034373;28;20475;-38
2023/11/28 07:59:56;;;;;;;0.43;0.25;;;12.30;96.60;;;;;;5034495;28;20076;-42
2023/11/28 08:02:21;;;;;;;1.05;0.52;;;12.30;96.60;;;;;;4999599;28;20052;-38
2023/11/28 08:04:47;;;;;;;0.55;0.40;;;12.30;96.60;;;;;;5014019;28;20273;-43
2023/11/28 08:07:13;;;;;;;0.60;0.40;;;12.40;96.60;;;;;;5013375;28;20026;-42
2023/11/28 08:09:38;;;;;;;0.28;0.20;;;12.40;96.50;;;;;;5013298;28;20053;-42
2023/11/28 08:12:04;;;;;;;0.85;0.40;;;12.40;96.50;;;;;;5014084;28;20026;-45
2023/11/28 08:14:30;;;;;;;0.50;0.30;;;12.50;96.50;;;;;;5013783;28;20025;-45
2023/11/28 08:16:55;;;;;;;0.68;0.38;;;12.50;96.40;;;;;;5013257;28;20026;-40
2023/11/28 08:19:21;;;;;;;0.60;0.40;;;12.50;96.40;;;;;;5013160;28;20484;-46
2023/11/28 08:21:46;;;;;;;0.60;0.50;;;12.50;96.30;;;;;;5013507;28;20061;-45
2023/11/28 08:24:12;;;;;;;0.55;0.40;;;12.50;96.30;;;;;;5012057;28;20141;-43
2023/11/28 08:26:38;;;;;;;0.73;0.60;;;12.60;96.20;;;;;;5013276;28;20137;-41
2023/11/28 08:29:03;;;;;;;0.45;0.40;;;12.60;96.20;;;;;;5014681;28;20029;-46
2023/11/28 08:31:29;;;;;;;0.35;0.35;;;12.60;96.10;;;;;;5013573;28;20084;-44
2023/11/28 08:33:54;;;;;;;0.43;0.35;;;12.70;96.10;;;;;;5013919;28;20491;-46
2023/11/28 08:36:20;;;;;;;0.88;0.60;;;12.70;96.00;;;;;;5014101;28;20049;-41
2023/11/28 08:38:45;;;;;;;1.90;0.40;;;12.70;96.00;;;;;;5013628;28;20034;-43
2023/11/28 08:41:11;;;;;;;0.60;0.40;;;12.80;95.90;;;;;;5014307;28;20025;-46
2023/11/28 08:43:37;;;;;;;0.80;0.50;;;12.80;95.90;;;;;;5014421;28;20096;-42
2023/11/28 08:46:02;;;;;;;0.98;0.47;;;12.80;95.90;;;;;;5013437;28;20044;-41
2023/11/28 08:48:28;;;;;;;1.10;0.50;;;12.80;95.90;;;;;;5012827;28;20489;-42
2023/11/28 08:50:55;;;;;;;0.90;0.57;;;12.80;95.90;;;;;;5013105;28;20030;-43
2023/11/28 08:53:20;;;;;;;0.90;0.65;;;12.80;95.90;;;;;;5013385;28;20544;-46
2023/11/28 08:55:46;;;;;;;0.82;0.52;;;12.80;95.90;;;;;;5012600;28;20021;-46
2023/11/28 08:58:12;;;;;;;0.80;0.43;;;12.90;95.90;;;;;;4990392;28;20500;-45
2023/11/28 09:00:37;;;;;;;1.00;0.60;;;12.90;95.90;;;;;;5025674;28;20040;-45
2023/11/28 09:03:03;;;;;;;1.00;0.60;;;13.00;95.90;;;;;;5012491;28;20100;-46
2023/11/28 09:05:29;;;;;;;0.30;0.30;;;13.00;95.90;;;;;;5012797;28;20519;-45
2023/11/28 09:07:57;;;;;;;0.73;0.47;;;13.00;95.70;;;;;;5012317;28;20037;-46
2023/11/28 09:10:23;;;;;;;1.40;0.70;;;13.10;95.70;;;;;;5013409;28;20434;-44
2023/11/28 09:12:48;;;;;;;1.95;0.45;;;13.10;95.60;;;;;;5013630;28;20025;-46
2023/11/28 09:15:15;;;;;;;1.08;0.75;;;13.10;95.50;;;;;;5012791;28;20396;-45
2023/11/28 09:17:41;;;;;;;0.80;0.50;;;13.20;95.50;;;;;;5012462;28;20029;-45
2023/11/28 09:20:08;;;;;;;1.20;0.63;;;13.20;95.40;;;;;;5012421;28;20033;-43
2023/11/28 09:22:34;;;;;;;0.80;0.57;;;13.20;95.40;;;;;;5013479;28;20515;-41
2023/11/28 09:25:00;;;;;;;0.90;0.50;;;13.30;95.30;;;;;;5013065;28;20033;-46
2023/11/28 09:27:25;;;;;;;0.95;0.50;;;13.30;95.30;;;;;;5012895;28;20480;-46
2023/11/28 09:29:51;;;;;;;1.00;0.50;;;13.30;95.20;;;;;;5013123;28;20034;-39
2023/11/28 09:32:17;;;;;;;0.88;0.50;;;13.40;95.20;;;;;;5012500;28;20026;-45
2023/11/28 09:34:43;;;;;;;0.45;0.40;;;13.40;95.10;;;;;;5012399;28;20022;-45
2023/11/28 09:37:10;;;;;;;1.35;0.50;;;13.40;95.10;;;;;;5013544;28;20053;-39
2023/11/28 09:39:36;;;;;;;1.25;0.65;;;13.50;95.00;;;;;;5011749;28;20129;-46
2023/11/28 09:42:06;;;;;;;1.27;0.68;;;13.50;95.00;;;;;;5012672;28;20116;-45
2023/11/28 09:44:34;;;;;;;1.92;0.77;;;13.60;94.90;;;;;;5012775;28;20096;-45
2023/11/28 09:47:06;;;;;;;1.35;0.70;;;13.60;94.90;;;;;;5011628;28;20040;-44
2023/11/28 09:49:38;;;;;;;1.55;0.70;;;13.60;94.80;;;;;;5011863;28;20025;-46
2023/11/28 09:52:05;;;;;;;2.00;0.55;;;13.60;94.70;;;;;;5013181;28;20021;-46
2023/11/28 09:54:32;;;;;;;1.10;0.52;;;13.70;94.70;;;;;;5012328;28;20073;-46
2023/11/28 09:57:00;;;;;;;0.88;0.52;;;13.70;94.70;;;;;;5011588;28;20064;-44
2023/11/28 09:59:29;;;;;;;1.67;0.70;;;13.70;94.60;;;;;;5012549;28;20010;-41
2023/11/28 10:01:55;;;;;;;1.67;0.70;;;13.70;94.50;;;;;;5012609;28;20547;-41
2023/11/28 10:04:22;;;;;;;1.15;0.60;;;13.80;94.50;;;;;;5013199;28;20065;-44
2023/11/28 10:06:49;;;;;;;2.03;0.70;;;13.80;94.50;;;;;;5011618;28;20573;-46
2023/11/28 10:09:16;;;;;;;1.95;0.70;;;13.80;94.40;;;;;;5012431;28;20052;-46
2023/11/28 10:11:43;;;;;;;1.40;0.52;;;13.90;94.70;;;;;;5013392;28;20022;-42
2023/11/28 10:14:09;;;;;;;0.98;0.52;;;13.90;94.30;;;;;;5012078;28;20061;-42
2023/11/28 10:16:42;;;;;;;1.50;0.55;;;13.90;94.30;;;;;;5011280;28;20034;-43
2023/11/28 10:19:08;;;;;;;1.40;0.47;;;13.90;94.30;;;;;;5012204;28;20053;-46
2023/11/28 10:21:35;;;;;;;1.40;0.57;;;14.00;94.30;;;;;;5011959;28;20410;-38
2023/11/28 10:24:00;;;;;;;1.25;0.47;;;14.00;94.30;;;;;;5011501;28;20112;-40
2023/11/28 10:26:26;;;;;;;1.15;0.50;;;14.00;94.20;;;;;;5011609;28;20475;-45
2023/11/28 10:28:51;;;;;;;1.30;0.47;;;14.00;94.20;;;;;;5011764;28;20022;-45
2023/11/28 10:31:18;;;;;;;1.35;0.60;;;14.00;94.10;;;;;;5012730;28;20045;-44
2023/11/28 10:33:43;;;;;;;0.82;0.55;;;14.00;94.10;;;;;;5011321;28;20045;-45
2023/11/28 10:36:10;;;;;;;0.98;0.55;;;14.10;94.10;;;;;;5012368;28;20457;-42
2023/11/28 10:38:37;;;;;;;0.68;0.43;;;14.10;94.10;;;;;;5011927;28;20037;-45
2023/11/28 10:41:03;;;;;;;0.60;0.40;;;14.10;94.00;;;;;;5011268;28;20097;-39
2023/11/28 10:43:29;;;;;;;1.02;0.40;;;14.10;94.00;;;;;;5011240;28;20022;-44
2023/11/28 10:45:58;;;;;;;0.75;0.43;;;14.10;93.90;;;;;;5011961;28;20404;-46
2023/11/28 10:48:25;;;;;;;0.52;0.30;;;14.20;93.90;;;;;;5014499;28;20396;-42
2023/11/28 10:50:51;;;;;;;0.60;0.20;;;14.20;93.90;;;;;;5016363;28;20022;-43
2023/11/28 10:53:18;;;;;;;0.90;0.40;;;14.20;93.90;;;;;;5015394;28;20018;-45
2023/11/28 10:55:59;;;;;;;0.98;0.45;;;14.20;93.80;;;;;;5015705;28;20507;-41
2023/11/28 10:58:26;;;;;;;0.90;0.45;;;14.30;93.80;;;;;;5015544;28;20026;-45
2023/11/28 11:01:02;;;;;;;1.02;0.50;;;14.30;93.70;;;;;;5015289;28;20030;-44
2023/11/28 11:03:28;;;;;;;0.60;0.40;;;14.30;93.70;;;;;;5016171;28;20029;-42
2023/11/28 11:05:54;;;;;;;0.25;0.20;;;14.30;93.60;;;;;;5015519;28;20022;-45
2023/11/28 11:08:21;;;;;;;0.70;0.30;;;14.30;93.60;;;;;;5015100;28;20488;-45
2023/11/28 11:10:48;;;;;;;0.35;0.30;;;14.40;93.60;;;;;;5014503;28;20034;-45
2023/11/28 11:13:23;;;;;;;0.40;0.30;;;14.40;93.60;;;;;;5015389;28;20029;-46
2023/11/28 11:16:15;;;;;;;0.77;0.30;;;14.40;93.60;;;;;;5015307;28;20024;-46
2023/11/28 11:18:48;;;;;;;0.40;0.20;;;14.40;93.50;;;;;;5015479;28;20104;-44
2023/11/28 11:21:42;;;;;;;1.45;0.32;;;14.40;93.50;;;;;;5015275;28;20022;-42
2023/11/28 11:24:18;;;;;;;0.77;0.35;;;14.50;93.40;;;;;;5015213;28;20083;-46
2023/11/28 11:26:50;;;;;;;1.60;0.30;;;14.50;93.40;;;;;;5014680;28;20476;-45
2023/11/28 11:29:25;;;;;;;0.60;0.40;;;14.50;93.30;;;;;;5015079;28;20096;-45
2023/11/28 11:31:52;;;;;;;0.75;0.40;;;14.50;93.30;;;;;;5015187;28;20369;-45
2023/11/28 11:34:43;;;;;;;0.77;0.40;;;14.50;93.20;;;;;;5014814;28;20435;-44
2023/11/28 11:37:17;;;;;;;0.68;0.43;;;14.60;93.30;;;;;;5014148;28;20026;-45
2023/11/28 11:39:51;;;;;;;0.43;0.30;;;14.50;93.20;;;;;;5014723;28;20516;-40
2023/11/28 11:42:19;;;;;;;0.80;0.40;;;14.60;93.20;;;;;;5014634;28;20026;-46
2023/11/28 11:45:09;;;;;;;0.70;0.40;;;14.60;93.20;;;;;;5013987;28;20029;-46
2023/11/28 11:47:38;;;;;;;0.70;0.43;;;14.60;93.20;;;;;;5015273;28;20396;-44
2023/11/28 11:50:06;;;;;;;0.45;0.32;;;14.60;93.10;;;;;;5014862;28;20030;-44
2023/11/28 11:52:32;;;;;;;0.50;0.30;;;14.60;93.10;;;;;;5015113;28;20093;-44
2023/11/28 11:55:09;;;;;;;0.65;0.30;;;14.70;93.10;;;;;;5013849;28;20018;-42
2023/11/28 11:57:35;;;;;;;0.50;0.40;;;14.70;93.00;;;;;;5013634;28;20033;-39
2023/11/28 12:00:01;;;;;;;0.40;0.30;;;14.70;93.00;;;;;;5013538;28;20026;-46
2023/11/28 12:02:41;;;;;;;0.43;0.30;;;14.70;93.00;;;;;;5013715;28;20033;-46
2023/11/28 12:05:09;;;;;;;0.77;0.40;;;14.70;92.90;;;;;;5014481;28;20061;-43
2023/11/28 12:07:35;;;;;;;0.50;0.38;;;14.70;92.90;;;;;;5013711;28;20030;-44
2023/11/28 12:10:12;;;;;;;0.60;0.40;;;14.70;92.80;;;;;;5013891;28;20056;-46
2023/11/28 12:12:39;;;;;;;0.43;0.20;;;14.70;92.80;;;;;;5014275;28;20038;-41
2023/11/28 12:15:05;;;;;;;2.13;0.47;;;14.70;92.80;;;;;;5014144;28;20480;-45
2023/11/28 12:17:31;;;;;;;0.63;0.30;;;14.70;92.80;;;;;;5013395;28;20030;-45
2023/11/28 12:19:56;;;;;;;0.50;0.30;;;14.70;92.80;;;;;;5014289;28;20037;-42
2023/11/28 12:22:22;;;;;;;1.38;0.45;;;14.70;92.70;;;;;;5014219;28;20076;-44
2023/11/28 12:24:48;;;;;;;0.68;0.30;;;14.80;92.80;;;;;;5013949;28;20029;-42
2023/11/28 12:27:14;;;;;;;2.05;0.40;;;14.80;92.80;;;;;;5013163;28;20026;-46
2023/11/28 12:29:41;;;;;;;0.52;0.30;;;14.80;92.70;;;;;;5013620;28;20037;-46
2023/11/28 12:32:06;;;;;;;0.40;0.30;;;14.80;92.70;;;;;;5013439;28;20492;-46
2023/11/28 12:34:34;;;;;;;0.32;0.22;;;14.80;92.70;;;;;;5013271;28;20022;-44
2023/11/28 12:37:00;;;;;;;1.05;0.30;;;14.80;92.70;;;;;;5013167;28;20037;-41
2023/11/28 12:39:29;;;;;;;0.50;0.38;;;14.80;92.70;;;;;;5013134;28;20099;-46
2023/11/28 12:41:56;;;;;;;0.45;0.30;;;14.80;92.70;;;;;;5012851;28;20026;-43
2023/11/28 12:44:31;;;;;;;0.68;0.40;;;14.80;92.70;;;;;;5012795;28;20026;-45
2023/11/28 12:46:59;;;;;;;0.63;0.40;;;14.80;92.70;;;;;;5013067;28;20500;-46